Time;durP1;ratioP1;P1;durP2;ratioP2;P2;SDS_P1;SDS_P2;PMS_P1;PMS_P2;Temp;Humidity;BMP_temperature;BMP_pressure;BME280_temperature;BME280_humidity;BME280_pressure;Samples;Min_cycle;Max_cycle;Signal;HPM_P1;HPM_P2
2023/10/10 00:02:20;;;;;;;10.45;5.47;;;19.80;99.90;;;;;;5069792;28;20044;-81
2023/10/10 00:04:49;;;;;;;10.13;4.53;;;19.80;99.90;;;;;;5089133;28;20123;-81
2023/10/10 00:07:16;;;;;;;10.85;5.35;;;19.80;99.90;;;;;;5084383;28;20104;-81
2023/10/10 00:09:44;;;;;;;10.38;4.85;;;19.90;99.90;;;;;;5075765;28;20556;-82
2023/10/10 00:12:18;;;;;;;9.43;5.00;;;20.00;99.90;;;;;;5052458;28;20039;-81
2023/10/10 00:14:50;;;;;;;9.25;5.28;;;19.90;99.90;;;;;;5059097;28;20051;-82
2023/10/10 00:17:22;;;;;;;11.35;5.78;;;19.90;99.90;;;;;;5070816;28;20135;-82
2023/10/10 00:19:52;;;;;;;8.85;5.07;;;20.00;99.90;;;;;;5056527;28;20040;-82
2023/10/10 00:22:26;;;;;;;11.85;5.95;;;19.90;99.90;;;;;;5054437;28;20125;-81
2023/10/10 00:24:52;;;;;;;10.85;6.07;;;19.80;99.90;;;;;;5070245;28;20137;-81
2023/10/10 00:27:22;;;;;;;11.57;5.97;;;19.90;99.90;;;;;;5065891;28;20072;-82
2023/10/10 00:29:48;;;;;;;10.40;5.57;;;19.80;99.90;;;;;;5056882;28;20424;-82
2023/10/10 00:32:22;;;;;;;6.00;5.10;;;19.70;99.90;;;;;;5057253;28;20491;-82
2023/10/10 00:34:48;;;;;;;7.60;4.90;;;19.80;99.90;;;;;;5060032;28;20032;-82
2023/10/10 00:37:17;;;;;;;12.65;5.85;;;19.90;99.90;;;;;;5065737;28;20027;-81
2023/10/10 00:39:52;;;;;;;11.00;5.90;;;19.90;99.90;;;;;;5057730;28;20044;-82
2023/10/10 00:42:36;;;;;;;11.95;6.20;;;19.90;99.90;;;;;;5041411;28;20040;-83
2023/10/10 00:45:09;;;;;;;9.50;6.00;;;20.00;99.90;;;;;;5054122;28;20065;-82
2023/10/10 00:47:43;;;;;;;9.90;6.20;;;19.90;99.90;;;;;;5046244;28;20044;-82
2023/10/10 00:50:16;;;;;;;11.25;6.25;;;19.90;99.90;;;;;;5044319;28;20047;-80
2023/10/10 00:52:44;;;;;;;11.50;5.38;;;20.00;99.90;;;;;;5058174;28;20040;-82
2023/10/10 00:55:10;;;;;;;7.82;6.05;;;20.00;99.90;;;;;;5061307;28;20032;-83
2023/10/10 00:57:37;;;;;;;10.77;5.63;;;19.90;99.90;;;;;;5061361;28;20484;-83
2023/10/10 01:00:14;;;;;;;8.15;5.03;;;20.00;99.90;;;;;;5052877;28;20131;-82
2023/10/10 01:02:44;;;;;;;10.45;5.75;;;19.90;99.90;;;;;;5047304;28;20044;-83
2023/10/10 01:05:13;;;;;;;15.73;6.82;;;20.00;99.90;;;;;;5068242;28;20212;-83
2023/10/10 01:07:40;;;;;;;9.55;6.07;;;19.90;99.90;;;;;;5070566;28;20173;-84
2023/10/10 01:10:16;;;;;;;12.85;6.57;;;20.00;99.90;;;;;;5074859;28;20103;-84
2023/10/10 01:12:46;;;;;;;9.98;5.72;;;20.10;99.90;;;;;;5070907;28;20035;-84
2023/10/10 01:15:57;;;;;;;10.07;5.80;;;19.80;99.90;;;;;;5080610;28;20039;-83
2023/10/10 01:18:03;;;;;;;9.25;6.38;;;19.90;99.90;;;;;;5081771;28;20079;-83
2023/10/10 01:20:45;;;;;;;11.55;6.22;;;19.90;99.90;;;;;;5081212;28;20043;-83
2023/10/10 01:23:12;;;;;;;15.15;6.60;;;19.90;99.90;;;;;;5058894;28;20032;-84
2023/10/10 01:28:13;;;;;;;13.95;7.03;;;19.90;99.90;;;;;;5076567;28;20095;-83
2023/10/10 01:30:57;;;;;;;11.27;6.53;;;20.00;99.90;;;;;;5065355;28;20041;-82
2023/10/10 01:33:29;;;;;;;11.38;5.63;;;20.10;99.90;;;;;;5024181;28;20488;-83
2023/10/10 01:35:58;;;;;;;16.70;7.03;;;19.90;99.90;;;;;;5051393;28;20127;-82
2023/10/10 01:38:38;;;;;;;10.30;6.25;;;20.10;99.90;;;;;;5042705;28;20481;-83
2023/10/10 01:41:15;;;;;;;11.27;7.00;;;20.00;99.90;;;;;;5061094;28;20035;-83
2023/10/10 01:43:45;;;;;;;14.43;7.22;;;20.10;99.90;;;;;;5093452;28;20058;-81
2023/10/10 01:46:19;;;;;;;11.75;6.50;;;20.10;99.90;;;;;;5045866;28;20357;-82
2023/10/10 01:48:46;;;;;;;9.48;6.28;;;20.00;99.90;;;;;;5034824;28;20465;-80
2023/10/10 01:51:15;;;;;;;10.35;7.00;;;19.90;99.90;;;;;;5066929;28;20115;-81
2023/10/10 01:53:43;;;;;;;11.85;7.22;;;20.10;99.90;;;;;;5066143;28;20039;-83
2023/10/10 01:56:11;;;;;;;11.68;7.22;;;20.30;99.90;;;;;;5055278;28;20067;-82
2023/10/10 01:58:38;;;;;;;12.73;7.22;;;20.00;99.90;;;;;;5073321;28;20044;-83
2023/10/10 02:01:16;;;;;;;11.73;7.72;;;20.20;99.90;;;;;;5077190;28;20468;-83
2023/10/10 02:03:42;;;;;;;11.45;7.78;;;20.10;99.90;;;;;;5085498;28;20035;-84
2023/10/10 02:06:13;;;;;;;10.95;7.55;;;20.20;99.90;;;;;;5052198;28;20078;-83
2023/10/10 02:08:41;;;;;;;13.45;7.60;;;20.30;99.90;;;;;;5057332;28;20073;-83
2023/10/10 02:11:08;;;;;;;8.55;6.70;;;20.20;99.90;;;;;;5088268;28;20111;-82
2023/10/10 02:13:39;;;;;;;9.93;5.90;;;20.20;99.90;;;;;;5060108;28;20033;-84
2023/10/10 02:16:06;;;;;;;12.77;7.60;;;20.00;99.90;;;;;;5059606;28;20047;-81
2023/10/10 02:18:44;;;;;;;11.43;6.63;;;20.30;99.90;;;;;;5053667;28;20109;-81
2023/10/10 02:21:16;;;;;;;11.52;6.70;;;20.10;99.90;;;;;;5046093;28;20071;-80
2023/10/10 02:23:46;;;;;;;11.15;7.28;;;20.30;99.90;;;;;;5065897;28;20127;-80
2023/10/10 02:26:28;;;;;;;12.75;7.50;;;20.10;99.90;;;;;;5062949;28;20051;-81
2023/10/10 02:29:17;;;;;;;13.25;7.70;;;20.40;99.90;;;;;;5062474;28;20063;-79
2023/10/10 02:31:42;;;;;;;10.18;7.07;;;20.30;99.90;;;;;;5054350;28;20044;-80
2023/10/10 02:34:10;;;;;;;14.95;8.38;;;20.10;99.90;;;;;;5083788;28;20036;-81
2023/10/10 02:36:59;;;;;;;17.45;8.55;;;20.40;99.90;;;;;;5049569;28;20037;-81
2023/10/10 02:39:29;;;;;;;19.20;9.00;;;20.30;99.90;;;;;;5051770;28;20040;-82
2023/10/10 02:42:00;;;;;;;15.25;9.20;;;20.40;99.90;;;;;;5050413;28;20028;-81
2023/10/10 02:44:47;;;;;;;17.48;10.07;;;20.20;99.90;;;;;;5082312;28;20041;-80
2023/10/10 02:47:13;;;;;;;13.27;8.55;;;20.20;99.90;;;;;;5070128;28;20043;-82
2023/10/10 02:49:42;;;;;;;23.17;10.13;;;20.50;99.90;;;;;;5043979;28;20036;-81
2023/10/10 02:52:14;;;;;;;15.93;10.13;;;20.20;99.90;;;;;;5053596;28;20128;-80
2023/10/10 02:54:53;;;;;;;17.88;10.40;;;20.40;99.90;;;;;;5064528;28;20456;-82
2023/10/10 02:59:59;;;;;;;12.68;9.10;;;20.50;99.90;;;;;;5044518;28;20044;-81
2023/10/10 03:02:30;;;;;;;12.38;8.95;;;20.40;99.90;;;;;;5065882;28;20522;-81
2023/10/10 03:07:29;;;;;;;13.13;9.18;;;20.30;99.90;;;;;;5082958;28;20813;-80
2023/10/10 03:12:49;;;;;;;14.52;9.75;;;20.20;99.90;;;;;;5078900;28;20087;-78
2023/10/10 03:15:37;;;;;;;11.40;8.60;;;20.30;99.90;;;;;;5046882;28;20071;-80
2023/10/10 03:18:18;;;;;;;11.35;8.68;;;20.30;99.90;;;;;;5083232;28;20101;-85
2023/10/10 03:26:19;;;;;;;13.23;9.33;;;20.30;99.90;;;;;;5036194;28;20064;-78
2023/10/10 03:28:47;;;;;;;11.23;8.88;;;20.70;99.90;;;;;;5043449;28;20033;-78
2023/10/10 05:25:31;;;;;;;16.90;9.20;;;20.40;99.90;;;;;;5083780;28;20291;-80
2023/10/10 05:27:59;;;;;;;10.18;7.72;;;20.60;99.90;;;;;;5078183;28;20127;-81
2023/10/10 05:30:27;;;;;;;14.60;9.30;;;20.60;99.90;;;;;;5066559;28;20694;-80
2023/10/10 05:33:04;;;;;;;13.00;8.73;;;20.60;99.90;;;;;;5067622;28;20367;-82
2023/10/10 05:35:35;;;;;;;11.32;8.75;;;20.60;99.90;;;;;;5056094;28;20048;-80
2023/10/10 05:38:01;;;;;;;13.15;8.73;;;20.70;99.90;;;;;;5065303;28;20032;-81
2023/10/10 05:40:28;;;;;;;12.43;9.52;;;20.50;99.90;;;;;;5068962;28;20071;-83
2023/10/10 05:42:57;;;;;;;14.80;10.88;;;20.40;99.90;;;;;;5078492;28;20096;-87
2023/10/10 05:45:23;;;;;;;20.85;11.65;;;20.50;99.90;;;;;;5064374;28;20048;-80
2023/10/10 05:47:49;;;;;;;18.67;11.98;;;20.40;99.90;;;;;;5048520;28;20105;-82
2023/10/10 05:50:16;;;;;;;19.17;11.52;;;20.60;99.90;;;;;;5064663;28;20034;-80
2023/10/10 05:52:43;;;;;;;18.25;12.20;;;20.50;99.90;;;;;;5060784;28;20043;-80
2023/10/10 05:55:10;;;;;;;24.67;13.80;;;20.60;99.90;;;;;;5062256;28;20505;-80
2023/10/10 05:57:37;;;;;;;17.63;12.52;;;20.40;99.90;;;;;;5045831;28;20093;-80
2023/10/10 06:00:10;;;;;;;20.27;13.25;;;20.50;99.90;;;;;;5077613;28;20043;-81
2023/10/10 06:02:44;;;;;;;22.02;13.95;;;20.60;99.90;;;;;;5060742;28;20373;-80
2023/10/10 06:05:12;;;;;;;;;;;20.40;99.90;;;;;;5078889;28;20048;-80
2023/10/10 06:07:44;;;;;;;27.33;15.52;;;20.40;99.90;;;;;;5065273;28;19928;-79
2023/10/10 06:10:17;;;;;;;28.55;17.13;;;20.60;99.90;;;;;;5071285;28;20047;-79
2023/10/10 06:12:47;;;;;;;23.23;15.82;;;20.50;99.90;;;;;;5077629;28;20052;-81
2023/10/10 06:15:28;;;;;;;32.38;16.50;;;20.40;99.90;;;;;;5026772;28;20035;-83
2023/10/10 06:17:57;;;;;;;28.13;16.13;;;20.80;99.90;;;;;;5026242;28;20404;-84
2023/10/10 06:20:23;;;;;;;28.73;16.85;;;20.90;99.90;;;;;;5042705;28;20040;-81
2023/10/10 06:22:54;;;;;;;28.35;17.52;;;20.50;99.90;;;;;;5045011;28;20056;-84
2023/10/10 06:25:21;;;;;;;33.92;16.70;;;20.70;99.90;;;;;;5060155;28;20113;-84
2023/10/10 06:27:57;;;;;;;28.45;17.88;;;20.80;99.90;;;;;;5027017;28;20043;-65
2023/10/10 06:30:24;;;;;;;23.38;16.13;;;20.80;99.90;;;;;;5084022;28;20042;-83
2023/10/10 06:32:50;;;;;;;28.15;17.00;;;20.90;99.90;;;;;;5059474;28;20044;-84
2023/10/10 06:37:51;;;;;;;35.08;20.35;;;20.80;99.90;;;;;;5062496;28;20740;-82
2023/10/10 06:40:24;;;;;;;31.15;17.92;;;20.80;99.90;;;;;;5015178;28;20040;-83
2023/10/10 06:42:55;;;;;;;28.30;18.10;;;21.00;99.90;;;;;;5032264;28;20048;-81
2023/10/10 06:45:23;;;;;;;30.65;17.92;;;20.90;99.90;;;;;;5042715;28;20043;-82
2023/10/10 06:47:51;;;;;;;31.73;17.48;;;20.80;99.90;;;;;;5050725;28;20075;-81
2023/10/10 06:50:21;;;;;;;29.13;17.42;;;20.70;99.90;;;;;;5045847;28;20478;-82
2023/10/10 06:52:54;;;;;;;25.60;16.52;;;20.90;99.90;;;;;;5074012;28;20513;-81
2023/10/10 06:55:22;;;;;;;26.67;18.13;;;20.80;99.90;;;;;;5060711;28;20040;-82
2023/10/10 06:58:02;;;;;;;23.35;16.50;;;20.90;99.90;;;;;;5056690;28;20047;-83
2023/10/10 07:00:40;;;;;;;27.58;17.13;;;20.80;99.90;;;;;;5053877;28;20059;-83
2023/10/10 07:03:06;;;;;;;30.73;17.33;;;21.10;99.90;;;;;;5052194;28;20051;-81
2023/10/10 07:05:33;;;;;;;26.42;16.95;;;20.90;99.90;;;;;;5063942;28;20040;-81
2023/10/10 07:08:12;;;;;;;20.10;12.82;;;21.20;99.90;;;;;;5085180;28;20045;-82
2023/10/10 07:10:42;;;;;;;27.02;15.55;;;21.30;99.90;;;;;;5085629;28;20431;-83
2023/10/10 07:13:18;;;;;;;24.17;16.67;;;21.30;99.90;;;;;;5068927;28;20045;-83
2023/10/10 07:15:52;;;;;;;31.23;17.60;;;21.10;99.90;;;;;;5070095;28;20118;-83
2023/10/10 07:18:24;;;;;;;29.17;17.60;;;21.30;99.90;;;;;;5080780;28;20039;-80
2023/10/10 07:21:06;;;;;;;22.55;16.50;;;21.20;99.90;;;;;;5066319;28;20043;-84
2023/10/10 07:23:42;;;;;;;24.35;15.98;;;21.30;99.90;;;;;;5086172;28;20042;-82
2023/10/10 07:26:20;;;;;;;26.42;16.30;;;21.30;99.90;;;;;;5082332;28;20506;-81
2023/10/10 07:28:52;;;;;;;22.30;15.73;;;21.60;99.90;;;;;;5078187;28;20093;-82
2023/10/10 07:31:22;;;;;;;22.73;15.32;;;21.30;99.90;;;;;;5064643;28;20032;-81
2023/10/10 07:34:04;;;;;;;22.63;16.73;;;21.50;99.90;;;;;;5085952;28;20515;-82
2023/10/10 07:36:33;;;;;;;24.27;15.88;;;21.30;99.90;;;;;;5058117;28;20178;-81
2023/10/10 07:41:47;;;;;;;22.30;16.17;;;21.60;99.90;;;;;;5079973;28;20122;-82
2023/10/10 07:44:16;;;;;;;22.05;15.55;;;21.80;99.90;;;;;;5085087;28;20075;-81
2023/10/10 07:47:07;;;;;;;19.38;14.20;;;21.60;99.90;;;;;;5088788;28;20111;-81
2023/10/10 07:49:28;;;;;;;19.85;15.27;;;21.70;99.90;;;;;;5064080;28;20395;-81
2023/10/10 07:51:54;;;;;;;21.73;15.20;;;21.80;99.90;;;;;;5090879;28;20087;-80
2023/10/10 07:54:31;;;;;;;18.75;14.95;;;22.00;99.90;;;;;;5056881;28;20044;-82
2023/10/10 07:57:03;;;;;;;21.90;16.00;;;22.00;99.90;;;;;;5077006;28;20031;-80
2023/10/10 07:59:29;;;;;;;25.75;18.20;;;22.00;99.90;;;;;;5089928;28;20043;-80
2023/10/10 08:01:56;;;;;;;26.98;19.13;;;21.90;99.90;;;;;;5066374;28;20426;-81
2023/10/10 08:04:22;;;;;;;34.97;21.48;;;22.00;99.90;;;;;;5049139;28;20040;-81
2023/10/10 08:06:48;;;;;;;30.00;20.95;;;22.20;99.90;;;;;;5076092;28;20039;-83
2023/10/10 08:09:23;;;;;;;38.65;22.45;;;22.20;99.90;;;;;;5084758;28;20066;-80
2023/10/10 08:11:54;;;;;;;37.15;23.10;;;22.10;99.90;;;;;;5087025;28;20051;-81
2023/10/10 08:14:24;;;;;;;37.05;24.48;;;21.90;99.90;;;;;;5074343;28;20501;-81
2023/10/10 08:16:50;;;;;;;38.00;24.23;;;22.20;99.90;;;;;;5044870;28;20391;-81
2023/10/10 08:19:16;;;;;;;50.95;26.40;;;22.30;99.90;;;;;;5056336;28;20039;-82
2023/10/10 08:21:51;;;;;;;42.53;25.52;;;22.10;99.90;;;;;;5067555;28;20043;-82
2023/10/10 08:24:17;;;;;;;38.28;23.30;;;22.30;99.90;;;;;;5055396;28;20525;-83
2023/10/10 08:26:44;;;;;;;43.53;26.08;;;22.40;99.90;;;;;;5051183;28;20051;-82
2023/10/10 08:29:12;;;;;;;41.75;26.05;;;22.10;99.90;;;;;;5052378;28;20376;-81
2023/10/10 08:31:42;;;;;;;34.67;24.25;;;22.10;99.90;;;;;;5087324;28;20028;-80
2023/10/10 08:34:09;;;;;;;36.95;25.13;;;22.50;99.90;;;;;;5077266;28;20036;-81
2023/10/10 08:36:37;;;;;;;35.80;25.27;;;22.50;99.90;;;;;;5040893;28;20071;-81
2023/10/10 08:40:15;;;;;;;36.50;25.27;;;22.50;99.90;;;;;;5079507;28;20542;-82
2023/10/10 08:41:59;;;;;;;37.83;24.40;;;22.60;99.90;;;;;;5067595;28;20039;-82
2023/10/10 08:44:29;;;;;;;36.92;25.65;;;22.70;99.90;;;;;;5076050;28;20093;-83
2023/10/10 08:46:58;;;;;;;38.72;24.60;;;22.60;99.90;;;;;;5085372;28;20048;-80
2023/10/10 08:49:27;;;;;;;39.65;25.48;;;22.60;99.90;;;;;;5067699;28;20063;-82
2023/10/10 08:52:03;;;;;;;34.40;22.35;;;22.60;99.90;;;;;;5089689;28;20040;-81
2023/10/10 08:54:32;;;;;;;33.08;22.38;;;22.90;99.90;;;;;;5042138;28;20036;-82
2023/10/10 08:57:10;;;;;;;32.95;23.27;;;22.80;99.90;;;;;;5057544;28;20154;-83
2023/10/10 08:59:37;;;;;;;32.10;23.48;;;22.80;99.90;;;;;;5077753;28;20473;-83
2023/10/10 09:02:12;;;;;;;36.45;24.80;;;22.80;99.90;;;;;;5073680;28;20477;-80
2023/10/10 09:04:38;;;;;;;40.50;24.27;;;22.70;99.90;;;;;;5069789;28;20036;-83
2023/10/10 09:07:08;;;;;;;38.88;24.35;;;23.00;99.90;;;;;;5069940;28;20102;-83
2023/10/10 09:09:35;;;;;;;33.05;22.95;;;23.00;99.90;;;;;;5065261;28;20062;-84
2023/10/10 09:12:14;;;;;;;28.58;20.70;;;23.20;99.90;;;;;;5080968;28;20051;-83
2023/10/10 09:14:43;;;;;;;32.60;23.85;;;23.20;99.90;;;;;;5074684;28;20134;-81
2023/10/10 09:17:35;;;;;;;35.33;24.00;;;23.40;99.90;;;;;;5045388;28;20040;-82
2023/10/10 09:23:15;;;;;;;33.92;23.60;;;23.60;99.90;;;;;;5076613;28;20050;-81
2023/10/10 09:25:48;;;;;;;35.40;25.30;;;23.70;99.90;;;;;;5045365;28;20043;-82
2023/10/10 09:28:16;;;;;;;35.03;25.02;;;23.60;99.90;;;;;;5060421;28;20075;-81
2023/10/10 09:30:59;;;;;;;36.63;25.77;;;23.70;99.90;;;;;;5059430;28;20048;-81
2023/10/10 09:35:58;;;;;;;33.58;25.38;;;23.70;99.90;;;;;;5088828;28;20040;-81
2023/10/10 09:38:34;;;;;;;40.10;27.70;;;23.70;99.90;;;;;;5073503;28;20071;-82
2023/10/10 09:44:19;;;;;;;33.17;25.48;;;23.80;99.90;;;;;;5070171;28;20048;-81
2023/10/10 09:49:44;;;;;;;37.10;26.63;;;24.00;99.90;;;;;;5036376;28;20048;-82
2023/10/10 09:58:00;;;;;;;40.55;26.73;;;24.10;99.90;;;;;;5083563;28;20039;-82
2023/10/10 10:09:17;;;;;;;33.13;24.33;;;24.10;99.90;;;;;;5085725;28;20147;-82
2023/10/10 10:12:23;;;;;;;37.47;25.80;;;24.10;99.90;;;;;;5075466;28;20375;-83
2023/10/10 10:14:50;;;;;;;35.38;26.55;;;24.20;99.90;;;;;;5080020;28;20627;-81
2023/10/10 10:17:53;;;;;;;41.42;27.02;;;24.20;99.90;;;;;;5064971;28;20051;-83
2023/10/10 10:20:49;;;;;;;39.20;26.10;;;24.20;99.90;;;;;;5070980;28;20051;-82
2023/10/10 10:23:27;;;;;;;;;;;24.40;99.90;;;;;;5064839;28;20492;-81
2023/10/10 10:26:10;;;;;;;37.45;25.80;;;24.30;99.90;;;;;;5082304;28;19959;-83
2023/10/10 10:28:37;;;;;;;37.47;25.73;;;24.50;99.90;;;;;;5075561;28;20040;-82
2023/10/10 10:31:28;;;;;;;36.97;25.65;;;24.50;99.90;;;;;;5093211;28;20360;-81
2023/10/10 10:34:08;;;;;;;35.95;25.75;;;24.50;99.90;;;;;;5071127;28;20036;-82
2023/10/10 10:36:51;;;;;;;33.90;24.92;;;24.60;99.90;;;;;;5092479;28;20036;-82
2023/10/10 10:39:19;;;;;;;33.73;24.23;;;24.60;99.90;;;;;;5068983;28;20035;-81
2023/10/10 10:41:53;;;;;;;33.72;24.67;;;24.60;99.90;;;;;;5084409;28;20054;-82
2023/10/10 10:44:44;;;;;;;;;;;24.70;99.90;;;;;;5060499;28;20441;-81
2023/10/10 10:47:35;;;;;;;33.10;23.35;;;24.80;99.90;;;;;;5076262;28;19970;-81
2023/10/10 10:50:27;;;;;;;32.75;22.98;;;24.90;99.90;;;;;;5074339;28;20774;-82
2023/10/10 10:53:04;;;;;;;33.70;23.95;;;24.90;99.90;;;;;;5085096;28;20086;-84
2023/10/10 10:55:30;;;;;;;32.35;22.85;;;25.00;99.90;;;;;;5073277;28;20036;-81
2023/10/10 10:58:06;;;;;;;31.30;21.98;;;25.10;99.90;;;;;;5091271;28;20063;-81
2023/10/10 11:01:07;;;;;;;34.47;22.67;;;25.10;99.90;;;;;;5097332;28;20047;-83
2023/10/10 11:03:38;;;;;;;32.38;22.42;;;25.10;99.90;;;;;;5095502;28;20043;-82
2023/10/10 11:06:09;;;;;;;33.95;22.02;;;25.20;99.90;;;;;;5061853;28;20048;-82
2023/10/10 11:14:00;;;;;;;27.27;19.08;;;25.60;99.90;;;;;;5072171;28;20097;-81
2023/10/10 11:16:37;;;;;;;27.50;18.43;;;25.70;99.90;;;;;;5088971;28;20039;-82
2023/10/10 11:19:18;;;;;;;27.27;17.70;;;25.80;99.90;;;;;;5061394;28;20320;-82
2023/10/10 11:21:50;;;;;;;31.13;17.33;;;25.80;99.90;;;;;;5077071;28;20054;-84
2023/10/10 11:24:26;;;;;;;24.75;16.80;;;26.00;99.90;;;;;;5080164;28;20096;-82
2023/10/10 11:27:07;;;;;;;27.40;18.60;;;26.00;99.90;;;;;;5064470;28;20443;-84
2023/10/10 11:29:50;;;;;;;24.65;17.88;;;26.00;99.90;;;;;;5086912;28;20040;-82
2023/10/10 11:32:29;;;;;;;24.08;18.02;;;25.90;99.90;;;;;;5070160;28;20048;-82
2023/10/10 11:38:00;;;;;;;28.88;19.27;;;25.90;99.90;;;;;;5101233;27;20763;-82
2023/10/10 11:43:03;;;;;;;26.60;18.67;;;25.80;99.90;;;;;;5105940;28;20704;-83
2023/10/10 11:45:38;;;;;;;28.43;19.20;;;25.80;99.90;;;;;;5049222;28;20028;-81
2023/10/10 11:48:13;;;;;;;25.88;18.70;;;25.90;99.90;;;;;;5072337;28;20523;-84
2023/10/10 11:50:45;;;;;;;24.85;19.42;;;26.00;99.90;;;;;;5040111;28;20603;-83
2023/10/10 11:53:23;;;;;;;30.10;21.23;;;25.90;99.90;;;;;;5091154;28;20032;-84
2023/10/10 11:55:52;;;;;;;26.83;19.98;;;25.80;99.90;;;;;;5078229;28;20036;-82
2023/10/10 11:58:18;;;;;;;26.83;19.67;;;25.90;99.90;;;;;;5073298;28;20048;-82
2023/10/10 12:03:46;;;;;;;30.73;20.52;;;25.90;99.90;;;;;;5048327;28;20118;-82
2023/10/10 12:06:21;;;;;;;25.60;19.20;;;25.80;99.90;;;;;;5054832;28;20114;-82
2023/10/10 12:08:49;;;;;;;28.13;19.00;;;25.90;99.90;;;;;;5065772;28;20123;-82
2023/10/10 12:11:21;;;;;;;28.75;19.55;;;26.00;99.90;;;;;;5057240;28;20040;-82
2023/10/10 12:13:51;;;;;;;33.22;20.88;;;25.90;99.90;;;;;;5072966;28;20046;-84
2023/10/10 12:16:27;;;;;;;29.30;20.92;;;25.90;99.90;;;;;;5082268;28;20047;-83
2023/10/10 12:18:53;;;;;;;26.33;17.73;;;25.80;99.90;;;;;;5073083;28;20042;-84
2023/10/10 12:21:22;;;;;;;27.42;18.58;;;26.00;99.90;;;;;;5058646;28;20160;-83
2023/10/10 12:23:56;;;;;;;25.30;18.27;;;26.20;99.90;;;;;;5084953;28;20065;-83
2023/10/10 12:26:23;;;;;;;25.13;17.92;;;26.00;99.90;;;;;;5072391;28;20470;-84
2023/10/10 12:28:52;;;;;;;25.27;17.60;;;26.10;99.90;;;;;;5069295;28;20124;-83
2023/10/10 12:31:21;;;;;;;23.63;17.38;;;26.00;99.90;;;;;;5068886;28;20077;-82
2023/10/10 12:33:53;;;;;;;25.85;18.27;;;26.00;99.90;;;;;;5067973;28;20027;-83
2023/10/10 12:36:22;;;;;;;20.80;16.80;;;25.80;99.90;;;;;;5049990;28;20366;-83
2023/10/10 12:38:48;;;;;;;22.17;17.20;;;25.90;99.90;;;;;;5086499;28;20101;-83
2023/10/10 12:41:20;;;;;;;24.52;16.80;;;25.90;99.90;;;;;;5065450;28;20044;-82
2023/10/10 12:43:46;;;;;;;25.20;18.20;;;25.90;99.90;;;;;;5046982;28;20471;-82
2023/10/10 12:46:17;;;;;;;30.80;19.33;;;25.90;99.90;;;;;;5071100;28;20483;-83
2023/10/10 12:48:46;;;;;;;26.92;17.05;;;25.90;99.90;;;;;;5100364;28;20047;-83
2023/10/10 12:51:13;;;;;;;23.63;15.85;;;26.00;99.90;;;;;;5085493;28;20028;-84
2023/10/10 12:53:40;;;;;;;23.75;17.58;;;26.10;99.90;;;;;;5077115;28;20044;-82
2023/10/10 12:56:16;;;;;;;27.60;17.63;;;26.20;99.90;;;;;;5077479;28;20040;-85
2023/10/10 12:58:51;;;;;;;25.63;17.77;;;26.20;99.90;;;;;;5067855;28;20031;-82
2023/10/10 13:01:23;;;;;;;31.95;17.75;;;26.20;99.90;;;;;;5086993;28;20048;-81
2023/10/10 13:03:50;;;;;;;22.17;15.95;;;26.30;99.90;;;;;;5050388;28;20039;-82
2023/10/10 13:06:16;;;;;;;22.60;16.48;;;26.30;99.90;;;;;;5074640;28;20486;-82
2023/10/10 13:08:50;;;;;;;21.45;15.20;;;26.30;99.90;;;;;;5043329;28;20052;-84
2023/10/10 13:11:20;;;;;;;22.60;15.65;;;26.20;99.90;;;;;;5066168;28;20044;-83
2023/10/10 13:13:52;;;;;;;21.77;16.63;;;26.10;99.90;;;;;;5076876;28;20051;-83
2023/10/10 13:16:52;;;;;;;25.15;16.67;;;26.10;99.90;;;;;;5055015;28;20214;-81
2023/10/10 13:19:14;;;;;;;21.77;16.77;;;26.10;99.90;;;;;;5073629;28;20127;-83
2023/10/10 13:21:41;;;;;;;25.10;16.15;;;26.10;99.90;;;;;;5063864;28;20052;-83
2023/10/10 13:24:11;;;;;;;30.73;17.45;;;26.10;99.90;;;;;;5083337;28;20094;-82
2023/10/10 13:26:38;;;;;;;25.88;16.75;;;26.10;99.90;;;;;;5073123;28;20409;-83
2023/10/10 13:29:05;;;;;;;25.50;15.82;;;26.40;99.90;;;;;;5084781;28;20051;-83
2023/10/10 13:31:31;;;;;;;24.30;16.05;;;26.40;99.90;;;;;;5079768;28;20134;-84
2023/10/10 13:33:57;;;;;;;22.00;15.15;;;26.30;99.90;;;;;;5091152;28;20065;-83
2023/10/10 13:36:24;;;;;;;22.13;16.30;;;26.30;99.90;;;;;;5068068;28;20091;-84
2023/10/10 13:38:51;;;;;;;20.10;16.58;;;26.20;99.90;;;;;;5066375;28;20067;-84
2023/10/10 13:41:18;;;;;;;22.67;15.68;;;26.00;99.90;;;;;;5088974;28;20048;-85
2023/10/10 13:43:52;;;;;;;23.42;15.48;;;26.00;99.90;;;;;;5091253;28;20130;-82
2023/10/10 13:46:19;;;;;;;22.02;15.18;;;25.90;99.90;;;;;;5068117;28;20123;-81
2023/10/10 13:48:45;;;;;;;17.45;14.00;;;25.90;99.90;;;;;;5071259;28;20043;-82
2023/10/10 13:51:13;;;;;;;18.00;13.80;;;25.80;99.90;;;;;;5081496;28;20115;-82
2023/10/10 13:53:41;;;;;;;22.65;14.70;;;25.70;99.90;;;;;;5058283;28;20570;-81
2023/10/10 13:56:07;;;;;;;21.63;13.77;;;25.60;99.90;;;;;;5085691;28;20036;-82
2023/10/10 13:58:37;;;;;;;17.90;13.77;;;25.60;99.90;;;;;;5073046;28;20040;-81
2023/10/10 14:03:45;;;;;;;22.02;14.88;;;25.50;99.90;;;;;;5066462;28;20826;-82
2023/10/10 14:06:19;;;;;;;19.77;14.65;;;25.50;99.90;;;;;;5064098;28;20058;-81
2023/10/10 14:08:49;;;;;;;25.55;16.88;;;25.50;99.90;;;;;;5085397;28;20561;-82
2023/10/10 14:11:22;;;;;;;23.15;16.98;;;25.60;99.90;;;;;;5083493;28;20051;-83
2023/10/10 14:13:54;;;;;;;24.75;17.05;;;25.50;99.90;;;;;;5085444;28;20557;-82
2023/10/10 16:00:57;;;;;;;25.00;18.17;;;24.60;99.90;;;;;;6204372;22;1334778;-81
2023/10/10 16:03:23;;;;;;;27.17;17.48;;;24.50;99.90;;;;;;6210380;23;20016;-82
2023/10/10 16:05:49;;;;;;;22.35;16.92;;;24.40;99.90;;;;;;6210327;23;20022;-81
2023/10/10 16:08:14;;;;;;;24.42;16.67;;;24.40;99.90;;;;;;6210280;23;20008;-82
2023/10/10 16:10:40;;;;;;;23.52;16.95;;;24.40;99.90;;;;;;6185431;23;20016;-81
2023/10/10 16:13:07;;;;;;;26.30;18.58;;;24.30;99.90;;;;;;6235982;23;20004;-81
2023/10/10 16:15:33;;;;;;;31.58;18.52;;;24.30;99.90;;;;;;6210632;23;20062;-81
2023/10/10 16:17:59;;;;;;;26.42;18.17;;;24.20;99.90;;;;;;6185485;23;20063;-82
2023/10/10 16:20:25;;;;;;;26.77;17.55;;;24.20;99.90;;;;;;6185707;23;20567;-82
2023/10/10 16:22:54;;;;;;;23.92;15.98;;;24.20;99.90;;;;;;6210357;23;20008;-82
2023/10/10 16:25:23;;;;;;;24.52;17.65;;;24.20;99.90;;;;;;6210313;23;20008;-82
2023/10/10 16:27:49;;;;;;;23.20;16.35;;;24.10;99.90;;;;;;6186285;23;20008;-82
2023/10/10 16:30:16;;;;;;;24.35;16.50;;;24.10;99.90;;;;;;6185680;23;20016;-83
2023/10/10 16:32:45;;;;;;;22.40;17.10;;;24.10;99.90;;;;;;6210013;23;20336;-82
2023/10/10 16:35:11;;;;;;;20.70;16.13;;;24.10;99.90;;;;;;6185372;23;20011;-82
2023/10/10 16:37:40;;;;;;;21.35;16.65;;;24.10;99.90;;;;;;6209853;23;20020;-82
2023/10/10 16:40:11;;;;;;;20.17;15.45;;;24.10;99.90;;;;;;6185260;23;20016;-82
2023/10/10 16:42:37;;;;;;;22.67;16.75;;;24.00;99.90;;;;;;6209409;23;20062;-82
2023/10/10 16:45:03;;;;;;;21.67;16.02;;;24.00;99.90;;;;;;6234905;23;20020;-84
2023/10/10 16:47:29;;;;;;;19.60;15.45;;;24.00;99.90;;;;;;6209565;23;20008;-83
2023/10/10 16:49:55;;;;;;;20.58;16.02;;;23.90;99.90;;;;;;6235176;23;20297;-82
2023/10/10 16:52:25;;;;;;;21.13;14.95;;;23.90;99.90;;;;;;6185526;23;20008;-84
2023/10/10 16:54:52;;;;;;;24.33;14.80;;;23.90;99.90;;;;;;6208031;23;20034;-84
2023/10/10 16:57:20;;;;;;;22.73;15.55;;;23.90;99.90;;;;;;6179218;23;20316;-83
2023/10/10 16:59:46;;;;;;;19.95;14.60;;;23.80;99.90;;;;;;6228154;23;20024;-83
2023/10/10 17:02:12;;;;;;;20.92;14.80;;;23.90;99.90;;;;;;6202900;23;20028;-85
2023/10/10 17:04:38;;;;;;;21.85;14.27;;;23.80;99.90;;;;;;6202435;23;20081;-84
2023/10/10 17:07:04;;;;;;;19.42;13.55;;;23.80;99.90;;;;;;6202805;23;20007;-82
2023/10/10 17:09:35;;;;;;;19.63;14.63;;;23.70;99.90;;;;;;6202464;23;20012;-84
2023/10/10 17:12:05;;;;;;;20.75;14.75;;;23.70;99.90;;;;;;6254772;23;20008;-83
2023/10/10 17:14:30;;;;;;;21.10;14.25;;;23.60;99.90;;;;;;6177924;23;20012;-83
2023/10/10 17:16:57;;;;;;;19.42;15.05;;;23.60;99.90;;;;;;6227870;23;20084;-77
2023/10/10 17:19:23;;;;;;;22.50;16.25;;;23.50;99.90;;;;;;6178437;23;20015;-83
2023/10/10 17:21:49;;;;;;;21.85;14.85;;;23.50;99.90;;;;;;6202640;23;20019;-85
2023/10/10 17:24:15;;;;;;;20.08;14.60;;;23.50;99.90;;;;;;6203104;23;20058;-85
2023/10/10 17:26:43;;;;;;;25.75;15.07;;;23.50;99.90;;;;;;6227299;23;20301;-82
2023/10/10 17:29:11;;;;;;;19.15;13.80;;;23.50;99.90;;;;;;6227954;23;20023;-83
2023/10/10 17:31:39;;;;;;;23.98;15.05;;;23.50;99.90;;;;;;6228090;23;20008;-83
2023/10/10 17:34:06;;;;;;;20.88;14.20;;;23.50;99.90;;;;;;6203327;23;20016;-83
2023/10/10 17:36:35;;;;;;;18.48;13.93;;;23.60;99.90;;;;;;6203145;23;20069;-83